Time;durP1;ratioP1;P1;durP2;ratioP2;P2;SDS_P1;SDS_P2;PMS_P1;PMS_P2;Temp;Humidity;BMP_temperature;BMP_pressure;BME280_temperature;BME280_humidity;BME280_pressure;Samples;Min_cycle;Max_cycle;Signal;HPM_P1;HPM_P2
2021/12/09 00:01:34;;;;;;;65.97;32.55;;;;;;;1.97;97.63;99727.56;5071808;28;20032;-66
2021/12/09 00:04:05;;;;;;;68.53;34.75;;;;;;;1.90;98.04;99712.19;5055551;28;20556;-65
2021/12/09 00:06:31;;;;;;;73.18;33.08;;;;;;;1.94;98.32;99719.81;5051792;28;20052;-65
2021/12/09 00:09:00;;;;;;;72.72;34.22;;;;;;;1.91;98.25;99714.72;5053670;28;20025;-66
2021/12/09 00:11:28;;;;;;;70.28;33.53;;;;;;;1.95;98.07;99713.63;5071411;28;20024;-66
2021/12/09 00:13:54;;;;;;;66.22;32.95;;;;;;;1.97;97.51;99711.72;5071614;28;20047;-65
2021/12/09 00:16:20;;;;;;;70.80;33.67;;;;;;;1.87;97.50;99689.44;5071679;28;20051;-65
2021/12/09 00:18:45;;;;;;;67.22;33.13;;;;;;;2.00;97.79;99705.41;5071419;28;20029;-66
2021/12/09 00:21:11;;;;;;;67.18;33.50;;;;;;;2.00;97.80;99694.81;5055980;28;20047;-66
2021/12/09 00:23:37;;;;;;;69.43;33.88;;;;;;;1.96;97.49;99670.34;5051213;28;20486;-66
2021/12/09 00:26:03;;;;;;;72.63;33.72;;;;;;;2.00;97.58;99687.72;5059020;28;20049;-65
2021/12/09 00:28:29;;;;;;;67.05;33.85;;;;;;;2.00;97.38;99710.69;5063587;28;20025;-66
2021/12/09 00:30:54;;;;;;;77.40;36.08;;;;;;;1.95;97.56;99699.53;5060762;28;20029;-65
2021/12/09 00:33:20;;;;;;;76.13;36.08;;;;;;;1.92;97.90;99699.72;5051300;28;20380;-65
2021/12/09 00:35:51;;;;;;;71.10;33.35;;;;;;;1.89;98.02;99687.56;5051230;28;20028;-65
2021/12/09 00:38:34;;;;;;;61.83;31.88;;;;;;;1.92;98.28;99668.88;5055446;28;20021;-66
2021/12/09 00:41:01;;;;;;;69.22;31.90;;;;;;;1.94;98.94;99674.88;5054385;28;20029;-66
2021/12/09 00:43:27;;;;;;;69.30;34.80;;;;;;;1.91;98.70;99661.84;5055631;28;20039;-66
2021/12/09 00:45:52;;;;;;;77.15;35.30;;;;;;;1.89;98.63;99649.69;5063239;28;20036;-66
2021/12/09 00:48:18;;;;;;;67.43;32.95;;;;;;;1.92;99.12;99642.41;5055911;28;20061;-65
2021/12/09 00:50:44;;;;;;;74.82;35.42;;;;;;;1.92;98.43;99653.00;5070835;28;20479;-65
2021/12/09 00:53:10;;;;;;;73.53;34.25;;;;;;;1.93;98.56;99648.53;5061862;28;20040;-65
2021/12/09 00:55:36;;;;;;;77.50;34.55;;;;;;;1.91;98.67;99648.63;5061739;28;20032;-66
2021/12/09 00:58:02;;;;;;;74.30;34.67;;;;;;;1.93;99.10;99649.41;5050763;28;20035;-66
2021/12/09 01:00:31;;;;;;;80.72;36.78;;;;;;;1.86;98.63;99642.81;5053117;28;20037;-65
2021/12/09 01:02:58;;;;;;;75.53;35.10;;;;;;;1.88;98.69;99651.50;5070804;28;20624;-66
2021/12/09 01:05:23;;;;;;;75.97;36.13;;;;;;;1.82;99.00;99646.59;5059177;28;20033;-65
2021/12/09 01:07:49;;;;;;;73.47;34.55;;;;;;;1.84;99.24;99659.72;5070434;28;20028;-65
2021/12/09 01:10:15;;;;;;;77.07;35.45;;;;;;;1.81;99.54;99652.81;5069321;28;20032;-66
2021/12/09 01:12:41;;;;;;;75.05;35.03;;;;;;;1.81;100.00;99658.09;5062862;28;20112;-65
2021/12/09 01:15:08;;;;;;;77.15;34.88;;;;;;;1.70;100.00;99630.63;5057955;28;20020;-65
2021/12/09 01:17:34;;;;;;;76.10;35.58;;;;;;;1.77;99.94;99638.09;5068313;28;20029;-65
2021/12/09 01:20:00;;;;;;;73.35;35.25;;;;;;;1.75;99.85;99639.16;5056229;28;20023;-66
2021/12/09 01:22:34;;;;;;;75.40;34.42;;;;;;;1.81;99.99;99652.81;5053057;28;20025;-66
2021/12/09 01:25:00;;;;;;;81.90;35.88;;;;;;;1.78;99.91;99646.88;5056970;28;20040;-65
2021/12/09 01:27:26;;;;;;;74.43;33.00;;;;;;;1.76;100.00;99639.06;5051641;28;20395;-65
2021/12/09 01:29:54;;;;;;;74.00;33.35;;;;;;;1.75;100.00;99637.38;5051102;28;20137;-65
2021/12/09 01:32:26;;;;;;;82.63;35.78;;;;;;;1.72;100.00;99634.91;5070520;28;20074;-66
2021/12/09 01:34:52;;;;;;;77.13;33.00;;;;;;;1.66;100.00;99619.44;5059364;28;20083;-66
2021/12/09 01:37:18;;;;;;;82.05;33.10;;;;;;;1.70;100.00;99618.28;5066133;28;20036;-66
2021/12/09 01:39:43;;;;;;;79.20;33.03;;;;;;;1.70;100.00;99614.78;5070417;28;20461;-66
2021/12/09 01:42:09;;;;;;;75.03;32.58;;;;;;;1.80;100.00;99613.25;5067759;28;20033;-66
2021/12/09 01:44:34;;;;;;;79.97;33.97;;;;;;;1.72;100.00;99604.97;5063671;28;20024;-66
2021/12/09 01:47:00;;;;;;;71.97;32.47;;;;;;;1.73;100.00;99593.44;5055509;28;20056;-64
2021/12/09 01:49:25;;;;;;;77.90;31.77;;;;;;;1.75;100.00;99602.16;5050402;28;20037;-65
2021/12/09 01:51:52;;;;;;;79.15;31.92;;;;;;;1.71;100.00;99593.53;5053845;28;20032;-65
2021/12/09 01:54:18;;;;;;;77.60;32.60;;;;;;;1.75;100.00;99576.56;5048915;28;20068;-65
2021/12/09 01:56:44;;;;;;;79.57;30.98;;;;;;;1.73;100.00;99573.16;5050189;28;20048;-65
2021/12/09 01:59:10;;;;;;;73.30;30.70;;;;;;;1.67;100.00;99572.69;5063902;28;20040;-65
2021/12/09 02:01:37;;;;;;;72.82;30.92;;;;;;;1.66;100.00;99560.44;5068857;28;20078;-64
2021/12/09 02:04:05;;;;;;;78.95;29.92;;;;;;;1.63;100.00;99550.91;5069976;28;20483;-65
2021/12/09 02:06:33;;;;;;;74.10;29.58;;;;;;;1.56;100.00;99535.56;5053788;28;20055;-66
2021/12/09 02:08:58;;;;;;;75.20;30.35;;;;;;;1.56;100.00;99532.91;5053958;28;20464;-64
2021/12/09 02:11:24;;;;;;;73.45;28.90;;;;;;;1.56;100.00;99546.13;5054145;28;20032;-63
2021/12/09 02:13:54;;;;;;;67.93;27.30;;;;;;;1.51;100.00;99556.13;5069928;28;20368;-65
2021/12/09 02:16:20;;;;;;;62.30;24.60;;;;;;;1.44;100.00;99562.72;5068755;28;20028;-65
2021/12/09 02:18:46;;;;;;;60.90;23.98;;;;;;;1.44;100.00;99562.72;5072419;28;20115;-64
2021/12/09 02:21:18;;;;;;;64.60;24.98;;;;;;;1.40;100.00;99550.66;5070469;28;20036;-66
2021/12/09 02:24:14;;;;;;;60.70;24.70;;;;;;;1.38;100.00;99545.47;5053447;28;20060;-65
2021/12/09 02:26:42;;;;;;;64.65;26.52;;;;;;;1.37;100.00;99557.00;5067347;28;20039;-66
2021/12/09 02:29:09;;;;;;;65.00;26.38;;;;;;;1.34;100.00;99549.28;5073452;28;20458;-65
2021/12/09 02:31:36;;;;;;;63.95;27.33;;;;;;;1.40;100.00;99562.09;5073587;28;20090;-66
2021/12/09 02:34:02;;;;;;;66.50;24.58;;;;;;;1.42;100.00;99554.91;5055475;28;20090;-65
2021/12/09 02:36:30;;;;;;;69.90;27.00;;;;;;;1.37;100.00;99559.66;5053413;28;20029;-65
2021/12/09 02:38:56;;;;;;;60.25;22.30;;;;;;;1.42;100.00;99557.53;5057719;28;20028;-65
2021/12/09 02:41:25;;;;;;;64.20;25.17;;;;;;;1.37;100.00;99549.06;5073377;28;20111;-65
2021/12/09 02:43:55;;;;;;;59.97;25.25;;;;;;;1.38;100.00;99556.06;5057752;28;20039;-65
2021/12/09 02:46:24;;;;;;;62.25;23.17;;;;;;;1.43;100.00;99575.13;5073365;28;20372;-65
2021/12/09 02:48:50;;;;;;;58.00;24.33;;;;;;;1.45;100.00;99559.16;5061582;28;20029;-65
2021/12/09 02:51:16;;;;;;;61.28;24.20;;;;;;;1.45;100.00;99581.13;5069518;28;20032;-65
2021/12/09 02:53:42;;;;;;;56.83;23.30;;;;;;;1.38;100.00;99577.19;5073018;28;20600;-65
2021/12/09 02:56:08;;;;;;;52.92;23.20;;;;;;;1.45;100.00;99588.22;5073168;28;20033;-66
2021/12/09 02:58:33;;;;;;;50.90;23.23;;;;;;;1.48;100.00;99578.31;5073026;28;20040;-65
2021/12/09 03:01:01;;;;;;;60.60;25.08;;;;;;;1.43;100.00;99569.84;5071972;28;20024;-65
2021/12/09 03:03:27;;;;;;;56.13;22.85;;;;;;;1.43;100.00;99546.06;5072970;28;20028;-65
2021/12/09 03:05:58;;;;;;;63.78;25.83;;;;;;;1.54;100.00;99545.34;5072925;28;20548;-65
2021/12/09 03:08:34;;;;;;;60.63;26.08;;;;;;;1.52;100.00;99539.34;5069743;28;20028;-65
2021/12/09 03:11:09;;;;;;;55.80;23.33;;;;;;;1.49;100.00;99534.25;5060856;28;20021;-65
2021/12/09 03:13:35;;;;;;;53.63;21.75;;;;;;;1.58;100.00;99520.47;5062795;28;20025;-66
2021/12/09 03:16:03;;;;;;;49.95;22.98;;;;;;;1.51;100.00;99551.69;5072736;28;20043;-63
2021/12/09 03:18:29;;;;;;;54.05;22.70;;;;;;;1.49;100.00;99558.84;5072367;28;20340;-64
2021/12/09 03:20:55;;;;;;;51.38;21.98;;;;;;;1.44;100.00;99537.19;5071195;28;20031;-64
2021/12/09 03:23:22;;;;;;;54.83;22.40;;;;;;;1.43;100.00;99548.69;5062063;28;20045;-65
2021/12/09 03:25:49;;;;;;;52.83;23.10;;;;;;;1.40;100.00;99543.59;5053743;28;20033;-65
2021/12/09 03:28:14;;;;;;;53.88;23.33;;;;;;;1.49;100.00;99558.03;5053820;28;20029;-65
2021/12/09 03:30:40;;;;;;;56.22;22.95;;;;;;;1.49;100.00;99563.31;5052120;28;20031;-65
2021/12/09 03:33:06;;;;;;;58.00;23.58;;;;;;;1.49;100.00;99569.41;5054339;28;20036;-65
2021/12/09 03:35:31;;;;;;;57.08;24.35;;;;;;;1.50;100.00;99563.22;5052116;28;20033;-65
2021/12/09 03:37:57;;;;;;;56.97;25.17;;;;;;;1.50;100.00;99563.22;5052637;28;20048;-65
2021/12/09 03:40:22;;;;;;;56.35;24.30;;;;;;;1.54;100.00;99553.28;5054586;28;20020;-66
2021/12/09 03:42:48;;;;;;;54.17;23.98;;;;;;;1.53;100.00;99541.88;5051339;28;20043;-65
2021/12/09 03:45:14;;;;;;;56.65;24.23;;;;;;;1.59;100.00;99546.78;5053819;28;20047;-65
2021/12/09 03:47:40;;;;;;;57.25;25.42;;;;;;;1.58;100.00;99534.50;5054042;28;20091;-65
2021/12/09 03:50:08;;;;;;;55.55;24.75;;;;;;;1.61;100.00;99531.66;5051104;28;20112;-65
2021/12/09 03:52:33;;;;;;;56.05;24.13;;;;;;;1.61;100.00;99539.59;5052502;28;20490;-66
2021/12/09 03:54:59;;;;;;;51.72;24.58;;;;;;;1.59;100.00;99545.94;5050749;28;20021;-66
2021/12/09 03:57:25;;;;;;;57.67;24.42;;;;;;;1.63;100.00;99550.91;5051310;28;20021;-66
2021/12/09 03:59:51;;;;;;;55.22;25.10;;;;;;;1.62;100.00;99549.19;5051489;28;20040;-66
2021/12/09 04:02:17;;;;;;;59.97;24.83;;;;;;;1.67;100.00;99540.97;5051293;28;20040;-64
2021/12/09 04:04:43;;;;;;;58.25;25.95;;;;;;;1.65;100.00;99542.91;5050929;28;20017;-64
2021/12/09 04:07:08;;;;;;;52.60;25.75;;;;;;;1.63;100.00;99518.34;5054058;28;20036;-65
2021/12/09 04:09:34;;;;;;;51.15;23.40;;;;;;;1.66;100.00;99516.38;5053321;28;20021;-66
2021/12/09 04:12:00;;;;;;;67.32;26.88;;;;;;;1.68;100.00;99503.06;5052472;28;20040;-64
2021/12/09 04:14:26;;;;;;;52.95;24.60;;;;;;;1.67;100.00;99504.84;5053654;28;20036;-64
2021/12/09 04:16:52;;;;;;;52.67;24.63;;;;;;;1.71;100.00;99522.19;5052116;28;20399;-65
2021/12/09 04:19:18;;;;;;;54.17;23.73;;;;;;;1.67;100.00;99514.56;5052602;28;20044;-64
2021/12/09 04:21:44;;;;;;;53.00;24.70;;;;;;;1.72;100.00;99508.06;5051037;28;20029;-64
2021/12/09 04:24:12;;;;;;;56.22;24.23;;;;;;;1.70;100.00;99493.22;5050946;28;20052;-64
2021/12/09 04:26:41;;;;;;;53.50;25.55;;;;;;;1.72;100.00;99483.41;5058042;28;20104;-64
2021/12/09 04:29:08;;;;;;;49.67;23.98;;;;;;;1.65;100.00;99474.19;5053292;28;20036;-64
2021/12/09 04:31:33;;;;;;;55.30;24.73;;;;;;;1.67;100.00;99483.69;5066933;28;20032;-65
2021/12/09 04:33:59;;;;;;;52.63;24.35;;;;;;;1.72;100.00;99494.84;5058603;28;20025;-64
2021/12/09 04:36:26;;;;;;;50.22;24.75;;;;;;;1.72;100.00;99492.19;5051154;28;20037;-64
2021/12/09 04:38:52;;;;;;;52.45;25.67;;;;;;;1.72;100.00;99484.28;5051831;28;20027;-65
2021/12/09 04:41:19;;;;;;;53.55;25.60;;;;;;;1.72;100.00;99486.06;5070268;28;20032;-64
2021/12/09 04:43:45;;;;;;;58.80;28.17;;;;;;;1.74;100.00;99500.03;5060998;28;20033;-64
2021/12/09 04:46:11;;;;;;;54.05;26.75;;;;;;;1.71;100.00;99506.34;5050490;28;20444;-65
2021/12/09 04:48:37;;;;;;;54.35;24.25;;;;;;;1.81;100.00;99525.09;5050285;28;20103;-65
2021/12/09 04:51:03;;;;;;;51.28;24.30;;;;;;;1.79;100.00;99508.47;5050576;28;20112;-65
2021/12/09 04:53:29;;;;;;;56.22;27.75;;;;;;;1.75;100.00;99494.63;5050211;28;20115;-65
2021/12/09 04:55:54;;;;;;;59.10;28.38;;;;;;;1.79;100.00;99490.84;5050181;28;20067;-65
2021/12/09 04:58:20;;;;;;;57.17;28.40;;;;;;;1.77;100.00;99476.88;5050296;28;20029;-65
2021/12/09 05:00:48;;;;;;;57.22;27.17;;;;;;;1.87;100.00;99477.97;5049904;28;20033;-65
2021/12/09 05:03:13;;;;;;;53.88;27.33;;;;;;;1.86;100.00;99464.84;5050001;28;20024;-66
2021/12/09 05:05:51;;;;;;;60.47;27.80;;;;;;;1.81;100.00;99438.72;5049637;28;20074;-66
2021/12/09 05:08:19;;;;;;;52.40;26.38;;;;;;;1.88;100.00;99455.88;5050078;28;20526;-65
2021/12/09 05:13:21;;;;;;;57.50;26.88;;;;;;;1.82;100.00;99431.63;5060832;28;20025;-66
2021/12/09 05:15:47;;;;;;;51.10;26.30;;;;;;;1.91;100.00;99457.47;5049619;28;20120;-67
2021/12/09 05:18:14;;;;;;;52.92;26.65;;;;;;;1.91;100.00;99468.88;5050073;28;20463;-65
2021/12/09 05:20:40;;;;;;;50.33;24.67;;;;;;;1.90;100.00;99490.97;5059363;28;20422;-64
2021/12/09 05:23:05;;;;;;;50.17;24.65;;;;;;;1.96;100.00;99497.66;5060096;28;20048;-64
2021/12/09 05:25:31;;;;;;;50.65;26.15;;;;;;;1.94;100.00;99489.81;5050407;28;20029;-64
2021/12/09 05:27:57;;;;;;;54.50;26.10;;;;;;;1.96;100.00;99464.13;5050462;28;20029;-65
2021/12/09 05:30:26;;;;;;;51.80;25.90;;;;;;;1.92;100.00;99451.22;5049007;28;20053;-64
2021/12/09 05:32:52;;;;;;;44.38;23.60;;;;;;;1.98;100.00;99485.19;5050415;28;20021;-64
2021/12/09 05:35:18;;;;;;;51.75;24.50;;;;;;;1.97;100.00;99489.63;5050424;28;20031;-64
2021/12/09 05:37:45;;;;;;;47.65;25.05;;;;;;;1.97;100.00;99471.09;5055083;28;20036;-64
2021/12/09 05:40:12;;;;;;;49.55;25.13;;;;;;;2.04;100.00;99455.69;5058865;28;20048;-65
2021/12/09 05:42:38;;;;;;;48.85;25.23;;;;;;;1.99;100.00;99447.22;5053206;28;20116;-65
2021/12/09 05:45:05;;;;;;;50.15;23.85;;;;;;;1.98;100.00;99442.88;5062034;28;20121;-65
2021/12/09 05:47:31;;;;;;;50.70;24.95;;;;;;;2.07;100.00;99451.03;5065336;28;20478;-64
2021/12/09 05:49:57;;;;;;;45.55;23.92;;;;;;;2.03;100.00;99452.19;5074431;28;20024;-64
2021/12/09 05:52:22;;;;;;;50.97;25.13;;;;;;;2.03;100.00;99462.78;5064311;28;20059;-64
2021/12/09 05:54:48;;;;;;;51.78;25.60;;;;;;;2.10;100.00;99450.00;5051852;28;20036;-64
2021/12/09 05:57:14;;;;;;;50.42;24.75;;;;;;;2.04;100.00;99437.19;5060319;28;20041;-65
2021/12/09 05:59:41;;;;;;;54.67;27.52;;;;;;;2.03;100.00;99440.75;5065075;28;20036;-65
2021/12/09 06:02:08;;;;;;;48.22;24.88;;;;;;;2.05;100.00;99436.22;5061585;28;20048;-65
2021/12/09 06:04:35;;;;;;;46.53;24.83;;;;;;;2.05;100.00;99447.66;5060877;28;20036;-65
2021/12/09 06:07:00;;;;;;;52.95;26.15;;;;;;;2.08;100.00;99455.41;5056542;28;20064;-65
2021/12/09 06:09:26;;;;;;;55.03;26.90;;;;;;;2.00;100.00;99427.78;5054205;28;20048;-66
2021/12/09 06:11:53;;;;;;;52.42;26.27;;;;;;;2.05;100.00;99439.72;5051660;28;20025;-65
2021/12/09 06:14:18;;;;;;;49.85;26.48;;;;;;;2.07;100.00;99424.59;5062156;28;20047;-65
2021/12/09 06:16:45;;;;;;;54.28;27.40;;;;;;;2.10;100.00;99421.75;5051581;28;20116;-65
2021/12/09 06:19:11;;;;;;;54.33;27.08;;;;;;;2.07;100.00;99434.34;5061247;28;20545;-65
2021/12/09 06:21:36;;;;;;;51.70;26.20;;;;;;;2.06;100.00;99436.13;5057179;28;20100;-65
2021/12/09 06:24:02;;;;;;;52.53;27.10;;;;;;;2.07;100.00;99429.88;5052113;28;20052;-65
2021/12/09 06:26:30;;;;;;;56.60;27.52;;;;;;;2.01;100.00;99419.75;5052430;28;20086;-65
2021/12/09 06:28:55;;;;;;;52.72;27.13;;;;;;;2.05;100.00;99428.31;5070931;28;20028;-65
2021/12/09 06:31:21;;;;;;;58.17;29.10;;;;;;;1.92;100.00;99407.13;5068679;28;20036;-66
2021/12/09 06:33:47;;;;;;;52.03;26.67;;;;;;;2.04;100.00;99434.53;5052702;28;20032;-65
2021/12/09 06:36:12;;;;;;;52.45;27.63;;;;;;;2.04;100.00;99431.91;5051859;28;20032;-66
2021/12/09 06:38:38;;;;;;;55.45;26.77;;;;;;;2.01;100.00;99413.59;5072666;28;20119;-66
2021/12/09 06:41:04;;;;;;;49.25;26.30;;;;;;;2.03;100.00;99417.81;5068382;28;20033;-66
2021/12/09 06:43:29;;;;;;;49.08;25.00;;;;;;;2.04;100.00;99416.03;5055938;28;20025;-65
2021/12/09 06:45:57;;;;;;;53.35;27.35;;;;;;;2.04;100.00;99423.97;5060639;28;20032;-65
2021/12/09 06:48:22;;;;;;;49.45;24.98;;;;;;;2.05;100.00;99417.72;5073386;28;20460;-65
2021/12/09 06:50:49;;;;;;;48.00;26.95;;;;;;;2.04;100.00;99419.50;5073235;28;20024;-66
2021/12/09 06:53:16;;;;;;;55.60;26.60;;;;;;;2.04;100.00;99411.56;5059501;28;20016;-65
2021/12/09 06:55:43;;;;;;;52.78;27.55;;;;;;;2.05;100.00;99408.00;5073041;28;20028;-64
2021/12/09 06:58:09;;;;;;;50.30;27.40;;;;;;;2.00;100.00;99404.81;5057286;28;20037;-65
2021/12/09 07:00:41;;;;;;;50.45;27.02;;;;;;;2.05;100.00;99408.00;5055889;28;20448;-66
2021/12/09 07:03:08;;;;;;;50.65;26.88;;;;;;;2.01;100.00;99395.09;5052008;28;20028;-65
2021/12/09 07:05:33;;;;;;;53.60;26.95;;;;;;;2.02;100.00;99392.34;5061701;28;20547;-65
2021/12/09 07:07:59;;;;;;;52.15;26.88;;;;;;;2.03;100.00;99394.03;5062767;28;20115;-65
2021/12/09 07:10:25;;;;;;;49.78;27.17;;;;;;;2.03;100.00;99396.66;5052999;28;20373;-64
2021/12/09 07:12:51;;;;;;;52.67;26.92;;;;;;;2.06;100.00;99420.25;5052842;28;20028;-64
2021/12/09 07:15:17;;;;;;;51.70;27.65;;;;;;;2.02;100.00;99428.50;5052343;28;20024;-65
2021/12/09 07:17:43;;;;;;;48.70;25.85;;;;;;;2.05;100.00;99446.81;5065038;28;20028;-66
2021/12/09 07:20:12;;;;;;;54.28;26.88;;;;;;;2.03;100.00;99438.97;5051681;28;20031;-65
2021/12/09 07:22:38;;;;;;;51.88;25.55;;;;;;;2.03;100.00;99441.63;5053534;28;20036;-65
2021/12/09 07:25:04;;;;;;;48.45;26.05;;;;;;;2.05;100.00;99436.22;5072228;28;20053;-65
2021/12/09 07:27:30;;;;;;;49.78;26.67;;;;;;;2.00;100.00;99422.50;5072688;28;20025;-65
2021/12/09 07:29:56;;;;;;;48.60;25.25;;;;;;;2.04;100.00;99426.63;5071102;28;20044;-66
2021/12/09 07:32:21;;;;;;;55.28;26.63;;;;;;;2.04;100.00;99418.69;5067355;28;20032;-65
2021/12/09 07:34:47;;;;;;;51.28;25.38;;;;;;;2.05;100.00;99408.00;5058819;28;20142;-65
2021/12/09 07:37:12;;;;;;;50.53;26.65;;;;;;;2.03;100.00;99403.75;5051098;28;20055;-65
2021/12/09 07:39:38;;;;;;;51.47;26.42;;;;;;;2.05;100.00;99399.22;5060108;28;20142;-65
2021/12/09 07:42:04;;;;;;;51.95;26.23;;;;;;;2.06;100.00;99407.03;5060044;28;20037;-65
2021/12/09 07:44:31;;;;;;;50.63;27.25;;;;;;;2.05;100.00;99393.91;5057538;28;20021;-65
2021/12/09 07:46:58;;;;;;;50.63;26.02;;;;;;;2.05;100.00;99397.44;5052013;28;20115;-65
2021/12/09 07:49:24;;;;;;;50.65;25.83;;;;;;;2.06;100.00;99399.09;5061489;28;20526;-65
2021/12/09 07:51:51;;;;;;;53.92;28.05;;;;;;;2.08;100.00;99405.16;5071924;28;20029;-65
2021/12/09 07:54:16;;;;;;;58.72;28.08;;;;;;;2.11;100.00;99417.31;5069907;28;20523;-66
2021/12/09 07:56:42;;;;;;;47.03;25.75;;;;;;;2.12;100.00;99411.06;5058910;28;20071;-65
2021/12/09 07:59:08;;;;;;;57.08;29.17;;;;;;;2.13;100.00;99392.44;5065837;28;20040;-65
2021/12/09 08:01:35;;;;;;;50.85;26.65;;;;;;;2.14;100.00;99393.31;5051916;28;20029;-65
2021/12/09 08:04:01;;;;;;;50.60;28.38;;;;;;;2.13;100.00;99388.97;5056112;28;20040;-65
2021/12/09 08:06:27;;;;;;;52.60;27.45;;;;;;;2.17;100.00;99396.56;5069339;28;20127;-65
2021/12/09 08:08:53;;;;;;;51.22;26.75;;;;;;;2.16;100.00;99397.53;5066995;28;20051;-65
2021/12/09 08:11:18;;;;;;;48.50;25.35;;;;;;;2.15;100.00;99395.84;5063659;28;20020;-66
2021/12/09 08:13:44;;;;;;;49.10;25.25;;;;;;;2.13;100.00;99397.75;5063970;28;20039;-66
2021/12/09 08:16:09;;;;;;;50.95;25.85;;;;;;;2.16;100.00;99386.94;5053312;28;20029;-65
2021/12/09 08:18:53;;;;;;;49.72;27.40;;;;;;;2.13;100.00;99386.34;5050371;28;20479;-66
2021/12/09 08:21:23;;;;;;;44.60;24.52;;;;;;;2.20;100.00;99384.97;5050256;28;20037;-66
2021/12/09 08:23:49;;;;;;;48.67;24.25;;;;;;;2.24;100.00;99392.56;5063040;28;20048;-65
2021/12/09 08:26:14;;;;;;;50.05;25.23;;;;;;;2.19;100.00;99384.09;5054984;28;20032;-65
2021/12/09 08:28:40;;;;;;;48.13;25.10;;;;;;;2.21;100.00;99378.69;5056548;28;20052;-66
2021/12/09 08:31:05;;;;;;;48.63;24.45;;;;;;;2.28;100.00;99379.97;5055168;28;20044;-65
2021/12/09 08:33:31;;;;;;;48.72;24.30;;;;;;;2.28;100.00;99370.25;5048917;28;20373;-65
2021/12/09 08:35:57;;;;;;;48.28;25.23;;;;;;;2.29;100.00;99382.50;5056301;28;20490;-65
2021/12/09 08:38:24;;;;;;;49.38;24.98;;;;;;;2.31;100.00;99380.63;5051173;28;20025;-65
2021/12/09 08:40:52;;;;;;;44.55;23.73;;;;;;;2.39;100.00;99398.63;5064870;28;20036;-65
2021/12/09 08:43:19;;;;;;;41.83;23.73;;;;;;;2.30;100.00;99359.56;5068079;28;20048;-64
2021/12/09 08:45:45;;;;;;;38.10;21.50;;;;;;;2.38;100.00;99368.66;5049605;28;20031;-65
2021/12/09 08:48:11;;;;;;;45.35;23.40;;;;;;;2.39;100.00;99365.03;5049816;28;20037;-65
2021/12/09 08:50:38;;;;;;;45.75;23.25;;;;;;;2.42;100.00;99364.84;5050959;28;20029;-65
2021/12/09 08:53:08;;;;;;;42.20;22.30;;;;;;;2.47;100.00;99379.53;5050952;28;20035;-65
2021/12/09 08:55:33;;;;;;;43.97;23.45;;;;;;;2.40;100.00;99363.25;5059926;28;20020;-65
2021/12/09 08:58:00;;;;;;;46.13;23.95;;;;;;;2.52;100.00;99372.13;5070711;28;20028;-66
2021/12/09 09:00:26;;;;;;;43.33;22.63;;;;;;;2.52;100.00;99361.53;5070349;28;20417;-66
2021/12/09 09:02:52;;;;;;;43.33;22.50;;;;;;;2.60;100.00;99373.28;5059747;28;20020;-66
2021/12/09 09:05:18;;;;;;;39.67;21.75;;;;;;;2.57;100.00;99373.50;5050250;28;20086;-66
2021/12/09 09:07:45;;;;;;;50.70;22.40;;;;;;;2.67;100.00;99363.13;5050186;28;20041;-65
2021/12/09 09:10:13;;;;;;;43.20;22.50;;;;;;;2.65;100.00;99359.72;5042666;28;20041;-65
2021/12/09 09:12:39;;;;;;;41.42;22.80;;;;;;;2.67;100.00;99363.13;5065397;28;20036;-64
2021/12/09 09:15:09;;;;;;;41.08;21.65;;;;;;;2.66;100.00;99362.25;5049823;28;20480;-65
2021/12/09 09:17:35;;;;;;;42.00;22.55;;;;;;;2.63;100.00;99348.38;5048649;28;20020;-65
2021/12/09 09:20:06;;;;;;;41.67;22.10;;;;;;;2.72;100.00;99355.69;5050061;28;20033;-65
2021/12/09 09:22:31;;;;;;;41.92;21.90;;;;;;;2.72;100.00;99359.19;5048573;28;20040;-66
2021/12/09 09:24:57;;;;;;;41.90;23.02;;;;;;;2.76;100.00;99363.31;5049478;28;20165;-66
2021/12/09 09:27:23;;;;;;;39.50;21.98;;;;;;;2.77;100.00;99350.94;5062619;28;20055;-66
2021/12/09 09:29:49;;;;;;;39.70;21.45;;;;;;;2.74;100.00;99348.50;5069738;28;20021;-66
2021/12/09 09:32:15;;;;;;;44.38;21.33;;;;;;;2.79;100.00;99346.34;5069943;28;20025;-66
2021/12/09 09:34:41;;;;;;;41.92;21.60;;;;;;;2.75;100.00;99353.69;5069802;28;20055;-66
2021/12/09 09:37:07;;;;;;;39.83;21.17;;;;;;;2.76;100.00;99341.28;5069730;28;20039;-66
2021/12/09 09:39:33;;;;;;;41.05;21.40;;;;;;;2.77;100.00;99330.56;5069617;28;20054;-65
2021/12/09 09:42:18;;;;;;;40.03;20.02;;;;;;;2.79;100.00;99320.72;5063577;28;20025;-66
2021/12/09 09:44:54;;;;;;;39.47;21.45;;;;;;;2.79;100.00;99315.44;5053956;28;20495;-65
2021/12/09 09:47:29;;;;;;;45.88;22.13;;;;;;;2.83;100.00;99301.00;5070537;28;20059;-66
2021/12/09 09:49:58;;;;;;;41.38;21.27;;;;;;;2.91;99.87;99308.41;5048529;28;20084;-65
2021/12/09 09:52:24;;;;;;;38.88;20.88;;;;;;;2.89;99.60;99284.69;5050310;28;20107;-65
2021/12/09 09:54:51;;;;;;;42.00;21.25;;;;;;;3.01;98.77;99290.88;5048918;28;20200;-66
2021/12/09 09:57:16;;;;;;;40.00;20.70;;;;;;;2.98;99.28;99293.75;5063782;28;20038;-66
2021/12/09 09:59:42;;;;;;;44.35;22.33;;;;;;;2.95;99.62;99294.84;5052197;28;20328;-66
2021/12/09 10:02:10;;;;;;;43.22;21.25;;;;;;;2.95;100.00;99301.91;5061133;28;20031;-66
2021/12/09 10:04:45;;;;;;;38.17;20.05;;;;;;;2.99;100.00;99287.50;5054073;28;20462;-66
2021/12/09 10:07:18;;;;;;;38.75;20.05;;;;;;;3.03;99.77;99283.69;5058143;28;20028;-66
2021/12/09 10:09:46;;;;;;;41.50;22.23;;;;;;;3.08;99.86;99277.09;5052072;28;20086;-66
2021/12/09 10:12:12;;;;;;;39.10;21.05;;;;;;;3.11;99.57;99276.84;5070282;28;20025;-65
2021/12/09 10:14:38;;;;;;;38.17;20.60;;;;;;;3.09;99.57;99268.16;5063798;28;20025;-65
2021/12/09 10:17:06;;;;;;;38.97;20.10;;;;;;;3.12;100.00;99269.72;5062334;28;20032;-67
2021/12/09 10:19:33;;;;;;;44.20;21.90;;;;;;;3.10;99.88;99261.94;5068813;28;20450;-66
2021/12/09 10:22:21;;;;;;;39.72;21.42;;;;;;;3.13;100.00;99263.50;5051707;28;20037;-66
2021/12/09 10:24:50;;;;;;;43.88;23.27;;;;;;;3.14;100.00;99268.69;5067805;28;20468;-67
2021/12/09 10:27:28;;;;;;;38.92;20.65;;;;;;;3.16;100.00;99263.28;5071077;28;20056;-66
2021/12/09 10:30:01;;;;;;;40.22;21.42;;;;;;;3.14;100.00;99251.94;5054824;28;20102;-66
2021/12/09 10:32:32;;;;;;;40.92;21.08;;;;;;;3.22;100.00;99257.53;5057307;28;20043;-66
2021/12/09 10:35:09;;;;;;;37.78;20.63;;;;;;;3.22;100.00;99252.22;5073464;28;20554;-67
2021/12/09 10:37:38;;;;;;;37.30;20.73;;;;;;;3.18;100.00;99240.16;5073448;28;20041;-66
2021/12/09 10:40:08;;;;;;;40.03;20.83;;;;;;;3.24;100.00;99237.03;5065702;28;20046;-66
2021/12/09 10:42:40;;;;;;;38.10;21.58;;;;;;;3.22;100.00;99225.75;5064379;28;20028;-66
2021/12/09 10:45:23;;;;;;;33.97;19.42;;;;;;;3.28;100.00;99241.16;5071697;28;20043;-66
2021/12/09 10:47:55;;;;;;;35.77;19.97;;;;;;;3.29;100.00;99245.50;5063649;28;20082;-66
2021/12/09 10:50:35;;;;;;;39.45;21.58;;;;;;;3.26;99.94;99228.00;5066244;28;20043;-66
2021/12/09 10:53:17;;;;;;;38.22;21.33;;;;;;;3.29;100.00;99222.47;5061422;28;20025;-66
2021/12/09 10:55:44;;;;;;;39.92;22.02;;;;;;;3.34;100.00;99199.16;5053107;28;20051;-66
2021/12/09 10:58:12;;;;;;;38.63;20.42;;;;;;;3.31;100.00;99195.88;5066358;28;20036;-67
2021/12/09 11:00:51;;;;;;;42.55;22.20;;;;;;;3.33;100.00;99186.00;5072951;28;20042;-66
2021/12/09 11:03:34;;;;;;;39.78;21.83;;;;;;;3.33;99.87;99186.88;5069369;28;20020;-66
2021/12/09 11:06:07;;;;;;;42.65;21.23;;;;;;;3.37;100.00;99182.16;5052924;28;20463;-66
2021/12/09 11:08:47;;;;;;;40.33;22.30;;;;;;;3.33;100.00;99164.81;5064471;28;20033;-66
2021/12/09 11:11:18;;;;;;;39.30;21.77;;;;;;;3.35;100.00;99161.09;5056029;28;20048;-66
2021/12/09 11:13:56;;;;;;;40.33;21.92;;;;;;;3.40;100.00;99160.72;5059279;28;20179;-66
2021/12/09 11:16:45;;;;;;;41.88;22.27;;;;;;;3.42;100.00;99148.22;5066944;28;20391;-66
2021/12/09 11:19:16;;;;;;;39.53;22.17;;;;;;;3.38;100.00;99142.31;5061008;28;20483;-66
2021/12/09 11:21:55;;;;;;;41.58;21.73;;;;;;;3.43;100.00;99148.09;5051619;28;20028;-66
2021/12/09 11:24:23;;;;;;;40.25;20.92;;;;;;;3.42;100.00;99143.75;5068345;28;20040;-66